createdAt,value
2019-02-14T00:00:33.447Z,3.98
2019-02-14T00:01:33.442Z,3.98
2019-02-14T00:02:33.430Z,3.92
2019-02-14T00:03:33.440Z,3.90
2019-02-14T00:04:33.412Z,3.75
2019-02-14T00:05:33.438Z,3.75
2019-02-14T00:06:33.394Z,3.70
2019-02-14T00:07:33.389Z,3.68
2019-02-14T00:08:33.384Z,3.57
2019-02-14T00:09:33.400Z,3.58
2019-02-14T00:10:33.361Z,3.58
2019-02-14T00:11:33.360Z,3.50
2019-02-14T00:12:33.350Z,3.46
2019-02-14T00:13:33.343Z,3.42
2019-02-14T00:14:33.332Z,3.43
2019-02-14T00:15:33.328Z,3.43
2019-02-14T00:16:33.320Z,3.54
2019-02-14T00:17:33.306Z,3.52
2019-02-14T00:18:33.300Z,3.65
2019-02-14T00:19:33.290Z,3.71
2019-02-14T00:20:33.284Z,3.92
2019-02-14T00:21:33.287Z,3.97
2019-02-14T00:22:33.272Z,4.10
2019-02-14T00:23:33.262Z,4.15
2019-02-14T00:24:33.256Z,4.24
2019-02-14T00:25:33.271Z,4.19
2019-02-14T00:26:33.269Z,4.24
2019-02-14T00:27:33.232Z,4.36
2019-02-14T00:28:33.221Z,4.25
2019-02-14T00:29:33.214Z,4.19
2019-02-14T00:30:33.206Z,4.26
2019-02-14T00:31:33.211Z,4.26
2019-02-14T00:32:33.209Z,4.28
2019-02-14T00:33:33.182Z,4.32
2019-02-14T00:34:33.198Z,4.34
2019-02-14T00:35:33.162Z,4.26
2019-02-14T00:36:33.159Z,4.28
2019-02-14T00:37:33.173Z,4.43
2019-02-14T00:38:33.152Z,4.34
2019-02-14T00:39:33.152Z,4.36
2019-02-14T00:40:33.126Z,4.33
2019-02-14T00:41:33.119Z,4.28
2019-02-14T00:42:33.122Z,4.19
2019-02-14T00:43:33.107Z,4.21
2019-02-14T00:44:33.096Z,4.15
2019-02-14T00:45:34.704Z,4.12
2019-02-14T00:46:33.122Z,4.16
2019-02-14T00:47:33.071Z,4.16
2019-02-14T00:48:33.064Z,4.21
2019-02-14T00:49:33.056Z,4.18
2019-02-14T00:50:33.051Z,4.24
2019-02-14T00:51:33.041Z,4.29
2019-02-14T00:52:33.038Z,4.29
2019-02-14T00:53:33.046Z,4.18
2019-02-14T00:54:33.054Z,4.15
2019-02-14T00:55:33.014Z,4.10
2019-02-14T00:56:33.003Z,4.07
2019-02-14T00:57:33.001Z,3.94
2019-02-14T00:58:32.987Z,3.96
2019-02-14T00:59:32.986Z,3.80
2019-02-14T01:00:32.977Z,3.70
2019-02-14T01:01:32.965Z,3.62
2019-02-14T01:02:32.959Z,3.54
2019-02-14T01:03:32.952Z,3.58
2019-02-14T01:04:32.943Z,3.44
2019-02-14T01:05:33.851Z,3.42
2019-02-14T01:06:32.932Z,3.44
2019-02-14T01:07:32.918Z,3.34
2019-02-14T01:08:32.911Z,3.40
2019-02-14T01:09:32.902Z,3.28
2019-02-14T01:10:32.894Z,3.23
2019-02-14T01:11:32.890Z,3.16
2019-02-14T01:12:32.878Z,3.07
2019-02-14T01:13:32.878Z,3.06
2019-02-14T01:14:32.865Z,3.02
2019-02-14T01:15:32.880Z,3.06
2019-02-14T01:16:32.846Z,2.95
2019-02-14T01:17:32.840Z,2.98
2019-02-14T01:18:32.834Z,2.82
2019-02-14T01:19:32.827Z,2.79
2019-02-14T01:20:32.814Z,2.71
2019-02-14T01:21:32.807Z,2.64
2019-02-14T01:22:32.795Z,2.59
2019-02-14T01:23:32.790Z,2.51
2019-02-14T01:24:32.783Z,2.38
2019-02-14T01:25:32.774Z,2.23
2019-02-14T01:26:32.769Z,2.13
2019-02-14T01:27:32.763Z,2.13
2019-02-14T01:28:32.778Z,2.19
2019-02-14T01:29:32.750Z,2.17
2019-02-14T01:30:32.740Z,2.23
2019-02-14T01:31:32.755Z,2.19
2019-02-14T01:32:32.716Z,2.31
2019-02-14T01:33:32.713Z,2.22
2019-02-14T01:34:32.700Z,2.23
2019-02-14T01:35:32.692Z,2.30
2019-02-14T01:36:32.683Z,2.33
2019-02-14T01:37:32.674Z,2.33
2019-02-14T01:38:32.671Z,2.31
2019-02-14T01:39:32.660Z,2.34
2019-02-14T01:40:32.683Z,2.26
2019-02-14T01:41:32.662Z,2.28
2019-02-14T01:42:32.635Z,2.22
2019-02-14T01:43:32.635Z,2.28
2019-02-14T01:44:32.615Z,2.26
2019-02-14T01:45:32.608Z,2.30
2019-02-14T01:46:32.599Z,2.28
2019-02-14T01:47:32.592Z,2.34
2019-02-14T01:48:32.581Z,2.23
2019-02-14T01:49:32.571Z,2.23
2019-02-14T01:50:32.562Z,2.31
2019-02-14T01:51:32.562Z,2.26
2019-02-14T01:52:32.548Z,2.31
2019-02-14T01:53:32.543Z,2.33
2019-02-14T01:54:32.546Z,2.41
2019-02-14T01:55:32.673Z,2.41
2019-02-14T01:56:32.514Z,2.53
2019-02-14T01:57:32.511Z,2.66
2019-02-14T01:58:32.498Z,2.69
2019-02-14T01:59:32.487Z,2.76
2019-02-14T02:00:32.482Z,2.87
2019-02-14T02:01:32.472Z,2.87
2019-02-14T02:02:32.462Z,3.02
2019-02-14T02:03:32.457Z,3.07
2019-02-14T02:04:32.475Z,3.12
2019-02-14T02:05:32.439Z,3.24
2019-02-14T02:06:32.429Z,3.39
2019-02-14T02:07:32.422Z,3.60
2019-02-14T02:08:32.411Z,3.71
2019-02-14T02:09:32.402Z,3.68
2019-02-14T02:10:32.395Z,3.72
2019-02-14T02:11:32.416Z,3.72
2019-02-14T02:12:32.393Z,3.75
2019-02-14T02:13:32.375Z,3.82
2019-02-14T02:14:32.365Z,3.92
2019-02-14T02:15:32.358Z,3.89
2019-02-14T02:16:32.346Z,3.96
2019-02-14T02:17:32.345Z,3.90
2019-02-14T02:18:32.336Z,3.92
2019-02-14T02:19:32.322Z,3.89
2019-02-14T02:20:33.541Z,3.90
2019-02-14T02:21:32.309Z,3.92
2019-02-14T02:22:32.298Z,3.86
2019-02-14T02:23:32.292Z,3.89
2019-02-14T02:24:32.282Z,4.00
2019-02-14T02:25:32.283Z,4.03
2019-02-14T02:26:32.266Z,4.08
2019-02-14T02:27:32.261Z,4.12
2019-02-14T02:28:32.257Z,4.15
2019-02-14T02:29:32.245Z,4.24
2019-02-14T02:30:32.238Z,4.29
2019-02-14T02:31:32.228Z,4.29
2019-02-14T02:32:32.221Z,4.24
2019-02-14T02:33:32.214Z,4.29
2019-02-14T02:34:32.222Z,4.34
2019-02-14T02:35:32.197Z,4.34
2019-02-14T02:36:32.189Z,4.37
2019-02-14T02:37:32.189Z,4.33
2019-02-14T02:38:32.173Z,4.29
2019-02-14T02:39:32.172Z,4.28
2019-02-14T02:40:32.161Z,4.19
2019-02-14T02:41:32.157Z,4.15
2019-02-14T02:42:32.162Z,4.15
2019-02-14T02:43:32.138Z,4.07
2019-02-14T02:44:32.123Z,4.19
2019-02-14T02:45:32.119Z,4.14
2019-02-14T02:46:32.109Z,4.15
2019-02-14T02:47:32.100Z,4.03
2019-02-14T02:48:32.107Z,4.12
2019-02-14T02:49:32.087Z,4.07
2019-02-14T02:50:32.078Z,4.04
2019-02-14T02:51:32.074Z,4.01
2019-02-14T02:52:32.066Z,4.00
2019-02-14T02:53:32.054Z,3.94
2019-02-14T02:54:32.046Z,3.90
2019-02-14T02:55:32.076Z,3.92
2019-02-14T02:56:32.031Z,3.90
2019-02-14T02:57:32.052Z,3.96
2019-02-14T02:58:32.015Z,3.80
2019-02-14T02:59:32.007Z,3.75
2019-02-14T03:00:31.999Z,3.67
2019-02-14T03:01:31.996Z,3.50
2019-02-14T03:02:31.986Z,3.40
2019-02-14T03:03:31.983Z,3.34
2019-02-14T03:04:31.998Z,3.23
2019-02-14T03:05:31.969Z,3.07
2019-02-14T03:06:31.952Z,3.05
2019-02-14T03:07:31.944Z,2.85
2019-02-14T03:08:31.944Z,2.73
2019-02-14T03:09:31.929Z,2.67
2019-02-14T03:10:31.921Z,2.61
2019-02-14T03:11:31.914Z,2.53
2019-02-14T03:12:31.944Z,2.45
2019-02-14T03:13:31.907Z,2.40
2019-02-14T03:14:31.891Z,2.28
2019-02-14T03:15:31.885Z,2.37
2019-02-14T03:16:31.875Z,2.28
2019-02-14T03:17:31.865Z,2.33
2019-02-14T03:18:31.857Z,2.22
2019-02-14T03:19:31.849Z,2.17
2019-02-14T03:20:31.842Z,2.06
2019-02-14T03:21:31.830Z,2.06
2019-02-14T03:22:31.824Z,2.06
2019-02-14T03:23:31.817Z,2.01
2019-02-14T03:24:31.806Z,1.97
2019-02-14T03:25:31.801Z,1.98
2019-02-14T03:26:31.788Z,1.90
2019-02-14T03:27:31.790Z,1.90
2019-02-14T03:28:31.772Z,1.98
2019-02-14T03:29:31.774Z,1.89
2019-02-14T03:30:31.759Z,1.78
2019-02-14T03:31:31.749Z,1.94
2019-02-14T03:32:31.744Z,1.75
2019-02-14T03:33:31.735Z,1.76
2019-02-14T03:34:31.722Z,1.76
2019-02-14T03:35:31.714Z,1.65
2019-02-14T03:36:31.704Z,1.62
2019-02-14T03:37:31.699Z,1.65
2019-02-14T03:38:31.687Z,1.61
2019-02-14T03:39:31.681Z,1.55
2019-02-14T03:40:31.671Z,1.47
2019-02-14T03:41:31.661Z,1.50
2019-02-14T03:42:31.684Z,1.47
2019-02-14T03:43:31.662Z,1.46
2019-02-14T03:45:25.380Z,1.39
2019-02-14T03:46:25.396Z,1.37
2019-02-14T03:48:18.357Z,1.46
2019-02-14T03:49:18.456Z,1.55
2019-02-14T03:51:11.240Z,1.52
2019-02-14T03:52:11.291Z,1.50
2019-02-14T03:54:04.804Z,1.43
2019-02-14T03:55:04.019Z,1.42
2019-02-14T03:56:57.544Z,1.39
2019-02-14T03:57:57.063Z,1.29
2019-02-14T03:59:50.435Z,1.36
2019-02-14T04:00:50.319Z,1.32
2019-02-14T04:02:43.325Z,1.28
2019-02-14T04:03:43.264Z,1.29
2019-02-14T04:05:36.186Z,1.29
2019-02-14T04:06:36.068Z,1.22
2019-02-14T04:08:29.009Z,1.29
2019-02-14T04:09:29.001Z,1.21
2019-02-14T04:11:22.392Z,1.25
2019-02-14T04:12:22.209Z,1.34
2019-02-14T04:14:15.616Z,1.26
2019-02-14T04:15:15.832Z,1.21
2019-02-14T04:17:08.711Z,1.24
2019-02-14T04:18:08.484Z,1.33
2019-02-14T04:20:01.835Z,1.21
2019-02-14T04:21:01.802Z,1.15
2019-02-14T04:22:54.803Z,1.12
2019-02-14T04:23:54.885Z,1.24
2019-02-14T04:25:47.641Z,1.19
2019-02-14T04:26:47.746Z,1.21
2019-02-14T04:28:40.480Z,1.10
2019-02-14T04:29:40.413Z,1.14
2019-02-14T04:31:33.302Z,1.16
2019-02-14T04:32:33.322Z,1.14
2019-02-14T04:34:26.674Z,1.15
2019-02-14T04:35:26.668Z,1.07
2019-02-14T04:37:20.095Z,1.08
2019-02-14T04:38:19.946Z,1.06
2019-02-14T04:40:12.930Z,1.08
2019-02-14T04:41:12.877Z,1.00
2019-02-14T04:43:05.861Z,1.03
2019-02-14T04:44:05.604Z,0.96
2019-02-14T04:45:59.166Z,0.98
2019-02-14T04:46:58.511Z,0.90
2019-02-14T04:48:51.466Z,0.92
2019-02-14T04:49:51.406Z,1.01
2019-02-14T04:51:44.338Z,1.00
2019-02-14T04:52:44.207Z,1.04
2019-02-14T04:54:37.329Z,0.98
2019-02-14T04:55:36.850Z,0.98
2019-02-14T04:57:30.618Z,0.92
2019-02-14T04:58:30.346Z,0.96
2019-02-14T05:00:23.984Z,0.89
2019-02-14T05:01:23.875Z,0.88
2019-02-14T05:03:16.762Z,0.89
2019-02-14T05:04:16.666Z,0.76
2019-02-14T05:06:10.349Z,0.75
2019-02-14T05:07:09.995Z,0.75
2019-02-14T05:09:03.022Z,0.62
2019-02-14T05:10:03.020Z,0.58
2019-02-14T05:11:55.798Z,0.43
2019-02-14T05:12:55.615Z,0.46
2019-02-14T05:14:48.630Z,0.46
2019-02-14T05:15:48.465Z,0.42
2019-02-14T05:17:42.115Z,0.43
2019-02-14T05:18:41.910Z,0.39
2019-02-14T05:20:34.905Z,0.39
2019-02-14T05:21:34.770Z,0.38
2019-02-14T05:23:28.005Z,0.31
2019-02-14T05:24:27.351Z,0.27
2019-02-14T05:26:22.613Z,0.38
2019-02-14T05:27:20.889Z,0.38
2019-02-14T05:29:13.734Z,0.30
2019-02-14T05:30:13.781Z,0.30
2019-02-14T05:32:06.713Z,0.42
2019-02-14T05:33:06.534Z,0.51
2019-02-14T05:34:59.596Z,0.48
2019-02-14T05:35:59.339Z,0.46
2019-02-14T05:37:52.737Z,0.42
2019-02-14T05:38:52.602Z,0.45
2019-02-14T05:40:45.492Z,0.42
2019-02-14T05:41:45.314Z,0.53
2019-02-14T05:43:38.897Z,0.45
2019-02-14T05:44:38.811Z,0.42
2019-02-14T05:46:31.838Z,0.46
2019-02-14T05:47:31.512Z,0.39
2019-02-14T05:49:25.046Z,0.36
2019-02-14T05:50:24.947Z,0.33
2019-02-14T05:52:17.884Z,0.27
2019-02-14T05:53:17.809Z,0.25
2019-02-14T05:55:10.948Z,0.24
2019-02-14T05:56:10.603Z,0.30
2019-02-14T05:58:03.980Z,0.31
2019-02-14T05:59:03.808Z,0.39
2019-02-14T06:00:56.920Z,0.36
2019-02-14T06:01:56.844Z,0.30
2019-02-14T06:03:49.727Z,0.31
2019-02-14T06:04:49.617Z,0.30
2019-02-14T06:06:42.711Z,0.33
2019-02-14T06:07:42.321Z,0.27
2019-02-14T06:09:35.161Z,0.33
2019-02-14T06:10:35.123Z,0.38
2019-02-14T06:12:28.591Z,0.27
2019-02-14T06:13:28.518Z,0.36
2019-02-14T06:15:21.486Z,0.45
2019-02-14T06:16:21.353Z,0.42
2019-02-14T06:18:14.629Z,0.45
2019-02-14T06:19:14.616Z,0.36
2019-02-14T06:21:07.596Z,0.36
2019-02-14T06:22:07.447Z,0.33
2019-02-14T06:24:00.904Z,0.27
2019-02-14T06:25:00.771Z,0.23
2019-02-14T06:26:53.774Z,0.16
2019-02-14T06:27:53.643Z,0.20
2019-02-14T06:29:47.000Z,0.16
2019-02-14T06:30:46.936Z,0.25
2019-02-14T06:32:39.921Z,0.20
2019-02-14T06:33:39.827Z,0.20
2019-02-14T06:35:33.462Z,0.24
2019-02-14T06:36:33.258Z,0.20
2019-02-14T06:38:26.339Z,0.20
2019-02-14T06:39:26.093Z,0.21
2019-02-14T06:41:19.201Z,0.21
2019-02-14T06:42:19.008Z,0.27
2019-02-14T06:44:12.532Z,0.28
2019-02-14T06:45:12.202Z,0.36
2019-02-14T06:47:05.204Z,0.39
2019-02-14T06:48:05.027Z,0.45
2019-02-14T06:49:58.489Z,0.45
2019-02-14T06:50:58.389Z,0.46
2019-02-14T06:52:51.418Z,0.46
2019-02-14T06:53:51.390Z,0.46
2019-02-14T06:55:44.916Z,0.41
2019-02-14T06:56:44.590Z,0.48
2019-02-14T06:58:37.694Z,0.45
2019-02-14T06:59:37.771Z,0.58
2019-02-14T07:01:30.523Z,0.75
2019-02-14T07:02:30.208Z,0.61
2019-02-14T07:04:23.616Z,0.75
2019-02-14T07:05:23.560Z,0.72
2019-02-14T07:07:18.537Z,0.72
2019-02-14T07:08:16.309Z,0.71
2019-02-14T07:10:09.934Z,1.16
2019-02-14T07:11:09.682Z,1.24
2019-02-14T07:12:09.799Z,1.21
2019-02-14T07:13:09.666Z,1.18
2019-02-14T07:14:09.838Z,1.19
2019-02-14T07:15:09.580Z,1.14
2019-02-14T07:16:09.718Z,1.04
2019-02-14T07:17:09.558Z,1.01
2019-02-14T07:18:09.563Z,0.98
2019-02-14T07:19:09.543Z,0.98
2019-02-14T07:20:09.532Z,0.89
2019-02-14T07:21:09.540Z,0.86
2019-02-14T07:22:09.512Z,0.89
2019-02-14T07:23:09.503Z,0.94
2019-02-14T07:24:09.495Z,1.00
2019-02-14T07:25:09.486Z,1.01
2019-02-14T07:26:09.474Z,0.96
2019-02-14T07:27:09.468Z,1.03
2019-02-14T07:28:09.455Z,0.98
2019-02-14T07:29:09.447Z,1.15
2019-02-14T07:30:09.437Z,1.14
2019-02-14T07:31:09.429Z,1.14
2019-02-14T07:32:09.426Z,1.08
2019-02-14T07:33:09.435Z,1.21
2019-02-14T07:34:09.408Z,1.36
2019-02-14T07:35:09.412Z,1.32
2019-02-14T07:36:09.381Z,1.24
2019-02-14T07:37:09.376Z,1.34
2019-02-14T07:38:09.366Z,1.36
2019-02-14T07:39:11.051Z,1.37
2019-02-14T07:40:09.344Z,1.43
2019-02-14T07:41:09.333Z,1.40
2019-02-14T07:42:09.326Z,1.40
2019-02-14T07:43:09.361Z,1.37
2019-02-14T07:44:09.313Z,1.43
2019-02-14T07:45:09.314Z,1.54
2019-02-14T07:46:09.300Z,1.52
2019-02-14T07:47:09.283Z,1.57
2019-02-14T07:48:09.278Z,1.64
2019-02-14T07:49:09.266Z,1.69
2019-02-14T07:50:09.256Z,1.68
2019-02-14T07:51:09.257Z,1.87
2019-02-14T07:52:09.234Z,1.85
2019-02-14T07:53:09.223Z,1.98
2019-02-14T07:54:09.217Z,2.02
2019-02-14T07:55:09.333Z,2.02
2019-02-14T07:56:09.199Z,2.13
2019-02-14T07:57:09.188Z,2.34
2019-02-14T07:58:09.181Z,2.41
2019-02-14T07:59:09.175Z,2.49
2019-02-14T08:00:09.168Z,2.56
2019-02-14T08:01:09.157Z,2.70
2019-02-14T08:02:09.176Z,2.79
2019-02-14T08:03:09.138Z,2.87
2019-02-14T08:04:09.135Z,2.84
2019-02-14T08:05:09.119Z,3.02
2019-02-14T08:06:09.114Z,3.06
2019-02-14T08:07:09.105Z,3.06
2019-02-14T08:08:09.100Z,3.21
2019-02-14T08:09:09.089Z,3.21
2019-02-14T08:10:09.118Z,3.44
2019-02-14T08:11:09.085Z,3.43
2019-02-14T08:12:09.066Z,3.42
2019-02-14T08:13:09.071Z,3.61
2019-02-14T08:14:09.053Z,3.57
2019-02-14T08:15:09.043Z,3.60
2019-02-14T08:16:09.033Z,3.67
2019-02-14T08:17:09.026Z,3.78
2019-02-14T08:18:09.039Z,3.90
2019-02-14T08:19:09.017Z,3.97
2019-02-14T08:20:09.006Z,4.21
2019-02-14T08:21:08.997Z,4.33
2019-02-14T08:22:08.989Z,4.69
2019-02-14T08:23:08.983Z,4.91
2019-02-14T08:24:08.977Z,5.17
2019-02-14T08:25:08.980Z,5.05
2019-02-14T08:26:10.753Z,4.91
2019-02-14T08:27:09.004Z,5.05
2019-02-14T08:28:08.955Z,4.92
2019-02-14T08:29:08.946Z,5.01
2019-02-14T08:30:08.935Z,4.92
2019-02-14T08:31:08.931Z,4.89
2019-02-14T08:32:08.921Z,4.96
2019-02-14T08:33:08.916Z,4.92
2019-02-14T08:34:08.911Z,4.99
2019-02-14T08:35:08.903Z,5.09
2019-02-14T08:36:08.926Z,5.14
2019-02-14T08:37:08.888Z,5.09
2019-02-14T08:38:08.883Z,5.07
2019-02-14T08:39:08.877Z,5.13
2019-02-14T08:40:08.870Z,5.17
2019-02-14T08:41:08.867Z,5.27
2019-02-14T08:42:08.857Z,5.23
2019-02-14T08:43:08.856Z,5.30
2019-02-14T08:44:08.849Z,5.45
2019-02-14T08:45:08.843Z,5.48
2019-02-14T08:46:08.837Z,5.49
2019-02-14T08:47:08.831Z,5.66
2019-02-14T08:48:08.824Z,5.81
2019-02-14T08:49:08.821Z,5.89
2019-02-14T08:50:08.816Z,6.14
2019-02-14T08:51:08.807Z,6.33
2019-02-14T08:52:08.809Z,6.43
2019-02-14T08:53:08.808Z,6.41
2019-02-14T08:54:08.788Z,6.44
2019-02-14T08:55:10.019Z,6.50
2019-02-14T08:56:08.780Z,6.43
2019-02-14T08:57:08.779Z,6.40
2019-02-14T08:58:08.773Z,6.35
2019-02-14T08:59:08.768Z,6.32
2019-02-14T09:00:08.765Z,6.48
2019-02-14T09:01:08.756Z,6.44
2019-02-14T09:02:08.748Z,6.38
2019-02-14T09:03:08.760Z,6.19
2019-02-14T09:04:08.744Z,6.19
2019-02-14T09:05:08.735Z,6.30
2019-02-14T09:06:08.730Z,6.33
2019-02-14T09:07:08.726Z,6.50
2019-02-14T09:08:08.721Z,6.81
2019-02-14T09:09:08.713Z,7.01
2019-02-14T09:10:10.691Z,7.29
2019-02-14T09:11:08.707Z,7.55
2019-02-14T09:12:08.704Z,7.74
2019-02-14T09:13:16.814Z,7.85
2019-02-14T09:14:08.695Z,8.02
2019-02-14T09:15:08.692Z,8.29
2019-02-14T09:16:08.698Z,8.58
2019-02-14T09:17:08.686Z,9.04
2019-02-14T09:18:08.695Z,9.43
2019-02-14T09:19:08.683Z,9.25
2019-02-14T09:20:08.695Z,9.39
2019-02-14T09:21:08.671Z,9.39
2019-02-14T09:22:08.669Z,9.85
2019-02-14T09:23:08.683Z,10.33
2019-02-14T09:24:08.665Z,11.06
2019-02-14T09:25:08.663Z,11.64
2019-02-14T09:26:08.670Z,12.38
2019-02-14T09:27:08.659Z,12.88
2019-02-14T09:28:08.659Z,13.76
2019-02-14T09:29:08.665Z,14.37
2019-02-14T09:30:08.667Z,15.02
2019-02-14T09:31:08.674Z,15.76
2019-02-14T09:32:08.666Z,16.22
2019-02-14T09:33:08.671Z,16.80
2019-02-14T09:34:08.678Z,17.25
2019-02-14T09:35:08.709Z,17.38
2019-02-14T09:36:08.682Z,17.38
2019-02-14T09:37:08.690Z,16.80
2019-02-14T09:38:08.695Z,16.37
2019-02-14T09:39:08.705Z,16.01
2019-02-14T09:40:08.705Z,15.86
2019-02-14T09:41:08.730Z,15.74
2019-02-14T09:42:08.718Z,15.74
2019-02-14T09:43:08.729Z,15.93
2019-02-14T09:44:08.743Z,16.49
2019-02-14T09:45:08.748Z,16.96
2019-02-14T09:46:08.750Z,17.57
2019-02-14T09:47:08.759Z,18.04
2019-02-14T09:48:08.767Z,18.42
2019-02-14T09:49:08.775Z,18.77
2019-02-14T09:50:08.780Z,18.87
2019-02-14T09:51:08.798Z,18.87
2019-02-14T09:52:08.821Z,18.18
2019-02-14T09:53:08.822Z,17.94
2019-02-14T09:54:08.813Z,17.84
2019-02-14T09:55:08.834Z,18.29
2019-02-14T09:56:08.835Z,18.29
2019-02-14T09:57:08.852Z,17.97
2019-02-14T09:58:08.852Z,17.07
2019-02-14T09:59:08.875Z,16.42
2019-02-14T10:00:08.870Z,15.74
2019-02-14T10:01:08.900Z,15.52
2019-02-14T10:02:08.889Z,14.69
2019-02-14T10:03:08.898Z,14.49
2019-02-14T10:04:08.917Z,14.61
2019-02-14T10:05:08.939Z,14.80
2019-02-14T10:06:08.928Z,15.03
2019-02-14T10:07:08.941Z,15.15
2019-02-14T10:08:12.716Z,15.15
2019-02-14T10:09:08.954Z,15.23
2019-02-14T10:10:08.965Z,15.56
2019-02-14T10:11:08.975Z,15.59
2019-02-14T10:12:09.005Z,15.68
2019-02-14T10:13:08.991Z,15.75
2019-02-14T10:14:09.004Z,15.66
2019-02-14T10:15:09.011Z,15.15
2019-02-14T10:16:09.022Z,14.74
2019-02-14T10:17:09.030Z,14.21
2019-02-14T10:18:09.051Z,14.02
2019-02-14T10:19:09.050Z,13.98
2019-02-14T10:20:09.063Z,13.87
2019-02-14T10:21:09.070Z,13.91
2019-02-14T10:22:09.088Z,14.06
2019-02-14T10:23:09.093Z,14.10
2019-02-14T10:24:09.122Z,14.32
2019-02-14T10:25:09.130Z,14.53
2019-02-14T10:26:09.123Z,14.69
2019-02-14T10:27:09.132Z,14.93
2019-02-14T10:28:09.147Z,14.90
2019-02-14T10:29:09.156Z,14.87
2019-02-14T10:30:09.160Z,15.02
2019-02-14T10:31:09.170Z,15.26
2019-02-14T10:32:09.179Z,15.42
2019-02-14T10:33:09.190Z,15.41
2019-02-14T10:34:09.208Z,15.51
2019-02-14T10:35:09.208Z,15.81
2019-02-14T10:36:09.217Z,15.68
2019-02-14T10:37:09.225Z,15.78
2019-02-14T10:38:09.235Z,15.61
2019-02-14T10:39:09.284Z,15.51
2019-02-14T10:40:09.260Z,15.46
2019-02-14T10:41:09.266Z,15.51
2019-02-14T10:42:09.272Z,15.33
2019-02-14T10:43:09.285Z,15.23
2019-02-14T10:44:09.294Z,15.15
2019-02-14T10:45:09.299Z,14.87
2019-02-14T10:46:09.303Z,14.95
2019-02-14T10:47:09.313Z,14.74
2019-02-14T10:48:09.319Z,14.61
2019-02-14T10:49:09.326Z,14.54
2019-02-14T10:50:09.335Z,14.52
2019-02-14T10:51:09.343Z,14.46
2019-02-14T10:52:09.352Z,14.54
2019-02-14T10:53:09.354Z,14.27
2019-02-14T10:54:09.365Z,14.04
2019-02-14T10:55:09.369Z,13.73
2019-02-14T10:56:09.372Z,13.46
2019-02-14T10:57:09.376Z,13.41
2019-02-14T10:58:09.381Z,13.44
2019-02-14T10:59:09.392Z,13.37
2019-02-14T11:00:09.394Z,13.40
2019-02-14T11:01:09.408Z,13.32
2019-02-14T11:02:09.407Z,13.33
2019-02-14T11:03:09.413Z,13.37
2019-02-14T11:04:09.422Z,13.41
2019-02-14T11:05:09.421Z,13.47
2019-02-14T11:06:09.422Z,13.46
2019-02-14T11:07:09.451Z,13.29
2019-02-14T11:08:09.434Z,13.18
2019-02-14T11:09:09.440Z,13.03
2019-02-14T11:10:09.450Z,12.97
2019-02-14T11:11:09.444Z,12.81
2019-02-14T11:12:09.461Z,12.69
2019-02-14T11:13:09.477Z,12.44
2019-02-14T11:14:09.458Z,12.41
2019-02-14T11:15:09.477Z,12.39
2019-02-14T11:16:09.903Z,12.21
2019-02-14T11:17:09.471Z,12.12
2019-02-14T11:18:09.468Z,12.19
2019-02-14T11:19:09.472Z,12.21
2019-02-14T11:20:09.474Z,12.21
2019-02-14T11:21:09.510Z,12.21
2019-02-14T11:22:09.486Z,12.21
2019-02-14T11:23:09.485Z,12.12
2019-02-14T11:24:09.492Z,12.08
2019-02-14T11:25:09.497Z,12.05
2019-02-14T11:26:09.500Z,12.01
2019-02-14T11:27:09.511Z,11.83
2019-02-14T11:28:09.499Z,11.77
2019-02-14T11:29:09.503Z,11.72
2019-02-14T11:30:09.498Z,11.80
2019-02-14T11:31:09.502Z,11.59
2019-02-14T11:32:09.505Z,11.59
2019-02-14T11:33:09.503Z,11.59
2019-02-14T11:34:09.505Z,11.62
2019-02-14T11:35:09.513Z,11.65
2019-02-14T11:36:09.507Z,11.64
2019-02-14T11:37:09.512Z,11.65
2019-02-14T11:38:09.512Z,11.53
2019-02-14T11:39:09.514Z,11.53
2019-02-14T11:40:09.516Z,11.64
2019-02-14T11:41:09.514Z,11.57
2019-02-14T11:42:09.512Z,11.53
2019-02-14T11:43:09.514Z,11.56
2019-02-14T11:44:09.542Z,11.54
2019-02-14T11:45:09.543Z,11.54
2019-02-14T11:46:09.577Z,11.44
2019-02-14T11:47:09.519Z,11.46
2019-02-14T11:48:09.520Z,11.35
2019-02-14T11:49:09.522Z,11.31
2019-02-14T11:50:09.520Z,11.29
2019-02-14T11:51:09.518Z,11.25
2019-02-14T11:52:09.520Z,11.20
2019-02-14T11:53:14.173Z,11.21
2019-02-14T11:54:09.522Z,11.17
2019-02-14T11:55:09.519Z,11.24
2019-02-14T11:56:10.028Z,11.11
2019-02-14T11:57:09.521Z,11.03
2019-02-14T11:58:09.519Z,11.03
2019-02-14T11:59:09.542Z,11.01
2019-02-14T12:00:09.520Z,10.96
2019-02-14T12:01:09.523Z,11.01
2019-02-14T12:02:09.526Z,11.03
2019-02-14T12:03:09.520Z,11.07
2019-02-14T12:04:09.524Z,10.99
2019-02-14T12:05:09.519Z,11.01
2019-02-14T12:06:09.517Z,11.10
2019-02-14T12:07:09.518Z,11.25
2019-02-14T12:08:09.709Z,11.21
2019-02-14T12:09:09.516Z,11.35
2019-02-14T12:10:13.627Z,11.50
2019-02-14T12:11:09.520Z,11.62
2019-02-14T12:12:09.522Z,11.74
2019-02-14T12:13:09.514Z,11.68
2019-02-14T12:14:09.515Z,11.87
2019-02-14T12:15:09.515Z,12.06
2019-02-14T12:16:09.549Z,12.09
2019-02-14T12:17:09.515Z,12.11
2019-02-14T12:18:09.514Z,12.15
2019-02-14T12:19:09.520Z,12.26
2019-02-14T12:20:12.371Z,12.41
2019-02-14T12:21:09.515Z,12.44
2019-02-14T12:22:09.519Z,12.46
2019-02-14T12:23:09.511Z,12.45
2019-02-14T12:24:09.524Z,12.38
2019-02-14T12:25:09.534Z,12.29
2019-02-14T12:26:09.514Z,12.24
2019-02-14T12:27:09.692Z,12.27
2019-02-14T12:28:09.514Z,12.16
2019-02-14T12:29:09.512Z,12.19
2019-02-14T12:30:09.542Z,12.05
2019-02-14T12:31:09.549Z,12.02
2019-02-14T12:32:09.514Z,12.06
2019-02-14T12:33:09.542Z,12.13
2019-02-14T12:34:09.516Z,12.24
2019-02-14T12:35:09.514Z,12.34
2019-02-14T12:36:09.571Z,12.59
2019-02-14T12:37:09.511Z,12.64
2019-02-14T12:38:09.513Z,12.78
2019-02-14T12:39:11.594Z,12.78
2019-02-14T12:40:09.588Z,12.95
2019-02-14T12:41:09.549Z,12.99
2019-02-14T12:42:09.519Z,13.02
2019-02-14T12:43:09.540Z,12.93
2019-02-14T12:44:09.517Z,12.93
2019-02-14T12:45:09.512Z,12.92
2019-02-14T12:46:09.512Z,12.79
2019-02-14T12:47:09.515Z,12.69
2019-02-14T12:48:09.524Z,12.82
2019-02-14T12:49:09.509Z,12.79
2019-02-14T12:50:09.521Z,12.97
2019-02-14T12:51:09.510Z,12.99
2019-02-14T12:52:09.514Z,12.97
2019-02-14T12:53:11.260Z,13.11
2019-02-14T12:54:09.515Z,13.20
2019-02-14T12:55:09.520Z,13.25
2019-02-14T12:56:09.536Z,13.27
2019-02-14T12:57:09.659Z,13.27
2019-02-14T12:58:09.511Z,13.30
2019-02-14T12:59:09.514Z,13.41
2019-02-14T13:00:09.543Z,13.44
2019-02-14T13:01:09.511Z,13.40
2019-02-14T13:02:09.541Z,13.32
2019-02-14T13:03:09.544Z,13.38
2019-02-14T13:04:09.550Z,13.56
2019-02-14T13:05:09.508Z,13.59
2019-02-14T13:06:09.542Z,13.65
2019-02-14T13:07:09.545Z,13.65
2019-02-14T13:08:09.511Z,13.65
2019-02-14T13:09:19.843Z,13.76
2019-02-14T13:10:09.515Z,13.81
2019-02-14T13:11:09.533Z,13.91
2019-02-14T13:12:09.513Z,13.67
2019-02-14T13:13:09.519Z,13.71
2019-02-14T13:14:09.518Z,13.74
2019-02-14T13:15:09.547Z,13.95
2019-02-14T13:16:09.537Z,14.01
2019-02-14T13:17:09.524Z,13.92
2019-02-14T13:18:09.518Z,13.88
2019-02-14T13:19:09.523Z,14.04
2019-02-14T13:20:09.529Z,14.09
2019-02-14T13:21:09.517Z,14.20
2019-02-14T13:22:09.519Z,14.31
2019-02-14T13:23:09.522Z,14.38
2019-02-14T13:24:09.638Z,14.29
2019-02-14T13:25:09.522Z,14.29
2019-02-14T13:26:09.521Z,14.10
2019-02-14T13:27:09.521Z,14.13
2019-02-14T13:28:09.525Z,13.98
2019-02-14T13:29:09.564Z,14.14
2019-02-14T13:30:09.522Z,14.19
2019-02-14T13:31:09.525Z,14.24
2019-02-14T13:32:09.526Z,14.27
2019-02-14T13:33:09.531Z,14.20
2019-02-14T13:34:09.525Z,14.19
2019-02-14T13:35:11.260Z,14.27
2019-02-14T13:36:09.543Z,14.19
2019-02-14T13:37:09.525Z,14.25
2019-02-14T13:38:09.530Z,14.12
2019-02-14T13:39:09.533Z,14.09
2019-02-14T13:40:09.534Z,14.09
2019-02-14T13:41:09.531Z,14.16
2019-02-14T13:42:09.577Z,14.16
2019-02-14T13:43:10.439Z,14.13
2019-02-14T13:44:09.536Z,14.16
2019-02-14T13:45:09.536Z,14.16
2019-02-14T13:46:09.537Z,14.19
2019-02-14T13:47:09.564Z,14.25
2019-02-14T13:48:09.538Z,14.28
2019-02-14T13:49:09.561Z,14.27
2019-02-14T13:50:09.575Z,14.19
2019-02-14T13:51:09.551Z,14.28
2019-02-14T13:52:09.580Z,14.32
2019-02-14T13:53:09.544Z,14.19
2019-02-14T13:54:09.596Z,14.17
2019-02-14T13:55:09.545Z,14.13
2019-02-14T13:56:09.597Z,14.19
2019-02-14T13:57:11.297Z,14.21
2019-02-14T13:58:17.771Z,14.14
2019-02-14T14:00:04.292Z,14.17
2019-02-14T14:01:11.426Z,14.24
2019-02-14T14:02:58.972Z,14.24
2019-02-14T14:03:59.021Z,14.37
2019-02-14T14:05:51.338Z,14.32
2019-02-14T14:06:52.336Z,14.43
2019-02-14T14:08:44.795Z,14.44
2019-02-14T14:09:45.198Z,14.43
2019-02-14T14:10:45.790Z,14.37
2019-02-14T14:11:45.666Z,14.34
2019-02-14T14:12:45.680Z,14.37
2019-02-14T14:13:45.156Z,14.34
2019-02-14T14:14:45.133Z,14.34
2019-02-14T14:15:45.642Z,14.32